Alfarata, Pennsylvania
Current Conditions -  °F | °C
As of 5:15 AM on Tuesday 27 Jan 2015 (Local Time) from KUNV Reporting Station
Light Snow Light Snow  
Wind Chill: -7°   Ceiling: 2300
Heat Index: -7°   Visibility: 10mi
Dew Point: -9°   Wind: 3mph
Humidity: 86%   Direction: 350°N
Pressure: 29.79"   Gusts: NA
Location:  40.7125°N, 77.3707°W
Report Text: KUNV 271015Z AUTO 35003KT 10SM -SN BKN023 OVC029 M06/M08 A2979 RMK AO2 T10651085
Loading
Personal Weather Stations






























Interactive Weather Map New forecast layout! Learn more

10-Day Weather Forecast

Advertisements
Track Severe Weather on mobile